메인 페이지
METAR-TAF:

METAR-TAF

공항 :

암스테르담, 네덜란드

암스테르담 스키폴 국제공항

위도: 52-18N, 경도: 004-46E, 고도: -4m

현재 날씨관측

예보는 27분 전, 05:25시(UTC)에 발표되었습니다.
동북동5kt
온도 -1°C
습도 100%
기압 1018 hPa
시정: 6000m

METAR: EHAM 200525Z 07005KT 6000 NSC M01/M01 Q1018 NOSIG

시각: 06:52 (05:52 UTC)

예보

예보는 51분 전, 05:01시(UTC)에 발표되었습니다.
예보 대상 시간: 20일 06시부터 21일 12시까지 (UTC)
동북동6kt
시정: 7000m
확률 30%
20일 06시부터 20일 08시까지 (UTC)
시정: 4500m
박무
전환 중
20일 08시부터 20일 10시까지 (UTC)
시정 10km 이상
1500m 미만 상공 구름 및 적란운 없음
확률 30% :
일시적
21일 01시부터 21일 08시까지 (UTC)
시정: 4500m
낮은 안개, 박무

TAF: EHAM 200501Z 2006/2112 06006KT 7000 NSC PROB30 2006/2008 4500 BR BECMG 2008/2010 CAVOK PROB30 TEMPO 2101/2108 4500 MIFG BR

4,000개 이상의 공항 관측 자료 및 예보 (METAR 및 TAF 보고).

지도상에서 검색 가능한 기상관측소가 노란 점과 빨간 점으로 표시되어 있습니다.

기상관측소 명을 보려면 표시 위로 마우스를 이동하세요.

날씨 관측과 예보를 보려면 클릭하세요.

지도 변경 : 확대하려면 엑스 표시가 있는 녹색 버튼, 축소하려면 빼기 표시가 있는 녹색 버튼, 다음 페이지의 지도를 보려면 녹색 화살표를 클릭하세요.


METAR-TAF: